sensor_id;sensor_type;location;lat;lon;timestamp;temperature;humidity
30534;DHT22;73248;52.398;9.814;2024-02-26T00:01:58;3.30;99.90
30534;DHT22;73248;52.398;9.814;2024-02-26T00:04:24;3.30;99.90
30534;DHT22;73248;52.398;9.814;2024-02-26T00:06:49;3.30;99.90
30534;DHT22;73248;52.398;9.814;2024-02-26T00:09:16;3.30;99.90
30534;DHT22;73248;52.398;9.814;2024-02-26T00:11:42;3.20;99.90
30534;DHT22;73248;52.398;9.814;2024-02-26T00:14:07;3.20;99.90
30534;DHT22;73248;52.398;9.814;2024-02-26T00:16:33;3.20;99.90
30534;DHT22;73248;52.398;9.814;2024-02-26T00:18:59;3.10;99.90
30534;DHT22;73248;52.398;9.814;2024-02-26T00:21:24;3.10;99.90
30534;DHT22;73248;52.398;9.814;2024-02-26T00:23:50;3.10;99.90
30534;DHT22;73248;52.398;9.814;2024-02-26T00:26:16;3.10;99.90
30534;DHT22;73248;52.398;9.814;2024-02-26T00:28:42;3.10;99.90
30534;DHT22;73248;52.398;9.814;2024-02-26T00:31:07;3.00;99.90
30534;DHT22;73248;52.398;9.814;2024-02-26T00:33:33;3.00;99.90
30534;DHT22;73248;52.398;9.814;2024-02-26T00:35:58;3.00;99.90
30534;DHT22;73248;52.398;9.814;2024-02-26T00:38:24;3.00;99.90
30534;DHT22;73248;52.398;9.814;2024-02-26T00:40:49;3.00;99.90
30534;DHT22;73248;52.398;9.814;2024-02-26T00:43:15;3.00;99.90
30534;DHT22;73248;52.398;9.814;2024-02-26T00:45:41;3.00;99.90
30534;DHT22;73248;52.398;9.814;2024-02-26T00:48:06;3.00;99.90
30534;DHT22;73248;52.398;9.814;2024-02-26T00:50:33;3.00;99.90
30534;DHT22;73248;52.398;9.814;2024-02-26T00:52:59;2.90;99.90
30534;DHT22;73248;52.398;9.814;2024-02-26T00:55:25;2.90;99.90
30534;DHT22;73248;52.398;9.814;2024-02-26T00:57:51;2.90;99.90
30534;DHT22;73248;52.398;9.814;2024-02-26T01:00:17;2.90;99.90
30534;DHT22;73248;52.398;9.814;2024-02-26T01:02:42;2.90;99.90
30534;DHT22;73248;52.398;9.814;2024-02-26T01:05:08;2.90;99.90
30534;DHT22;73248;52.398;9.814;2024-02-26T01:07:37;2.90;99.90
30534;DHT22;73248;52.398;9.814;2024-02-26T01:10:03;2.80;99.90
30534;DHT22;73248;52.398;9.814;2024-02-26T01:12:29;2.90;99.90
30534;DHT22;73248;52.398;9.814;2024-02-26T01:14:55;2.80;99.90
30534;DHT22;73248;52.398;9.814;2024-02-26T01:17:20;2.80;99.90
30534;DHT22;73248;52.398;9.814;2024-02-26T01:19:46;2.80;99.90
30534;DHT22;73248;52.398;9.814;2024-02-26T01:22:12;2.80;99.90
30534;DHT22;73248;52.398;9.814;2024-02-26T01:24:37;2.80;99.90
30534;DHT22;73248;52.398;9.814;2024-02-26T01:27:03;2.80;99.90
30534;DHT22;73248;52.398;9.814;2024-02-26T01:29:29;2.80;99.90
30534;DHT22;73248;52.398;9.814;2024-02-26T01:31:54;2.80;99.90
30534;DHT22;73248;52.398;9.814;2024-02-26T01:34:20;2.80;99.90
30534;DHT22;73248;52.398;9.814;2024-02-26T01:36:46;2.90;99.90
30534;DHT22;73248;52.398;9.814;2024-02-26T01:39:11;2.90;99.90
30534;DHT22;73248;52.398;9.814;2024-02-26T01:41:41;2.90;99.90
30534;DHT22;73248;52.398;9.814;2024-02-26T01:44:06;3.00;99.90
30534;DHT22;73248;52.398;9.814;2024-02-26T01:46:34;3.00;99.90
30534;DHT22;73248;52.398;9.814;2024-02-26T01:49:01;3.00;99.90
30534;DHT22;73248;52.398;9.814;2024-02-26T01:51:28;3.00;99.90
30534;DHT22;73248;52.398;9.814;2024-02-26T01:53:54;3.10;99.90
30534;DHT22;73248;52.398;9.814;2024-02-26T01:56:20;3.10;99.90
30534;DHT22;73248;52.398;9.814;2024-02-26T01:58:46;3.10;99.90
30534;DHT22;73248;52.398;9.814;2024-02-26T02:01:15;3.10;99.90
30534;DHT22;73248;52.398;9.814;2024-02-26T02:03:41;3.20;99.90
30534;DHT22;73248;52.398;9.814;2024-02-26T02:06:07;3.20;99.90
30534;DHT22;73248;52.398;9.814;2024-02-26T02:08:34;3.20;99.90
30534;DHT22;73248;52.398;9.814;2024-02-26T02:11:00;3.20;99.90
30534;DHT22;73248;52.398;9.814;2024-02-26T02:13:26;3.20;99.90
30534;DHT22;73248;52.398;9.814;2024-02-26T02:15:52;3.20;99.90
30534;DHT22;73248;52.398;9.814;2024-02-26T02:18:18;3.30;99.90
30534;DHT22;73248;52.398;9.814;2024-02-26T02:20:44;3.20;99.90
30534;DHT22;73248;52.398;9.814;2024-02-26T02:23:10;3.20;99.90
30534;DHT22;73248;52.398;9.814;2024-02-26T02:25:35;3.30;99.90
30534;DHT22;73248;52.398;9.814;2024-02-26T02:28:01;3.30;99.90
30534;DHT22;73248;52.398;9.814;2024-02-26T02:30:29;3.30;99.90
30534;DHT22;73248;52.398;9.814;2024-02-26T02:32:55;3.30;99.90
30534;DHT22;73248;52.398;9.814;2024-02-26T02:35:22;3.30;99.90
30534;DHT22;73248;52.398;9.814;2024-02-26T02:37:47;3.30;99.90
30534;DHT22;73248;52.398;9.814;2024-02-26T02:40:13;3.30;99.90
30534;DHT22;73248;52.398;9.814;2024-02-26T02:42:38;3.30;99.90
30534;DHT22;73248;52.398;9.814;2024-02-26T02:45:04;3.30;99.90
30534;DHT22;73248;52.398;9.814;2024-02-26T02:47:30;3.30;99.90
30534;DHT22;73248;52.398;9.814;2024-02-26T02:49:55;3.30;99.90
30534;DHT22;73248;52.398;9.814;2024-02-26T02:52:21;3.40;99.90
30534;DHT22;73248;52.398;9.814;2024-02-26T02:54:46;3.30;99.90
30534;DHT22;73248;52.398;9.814;2024-02-26T02:57:12;3.30;99.90
30534;DHT22;73248;52.398;9.814;2024-02-26T02:59:38;3.30;99.90
30534;DHT22;73248;52.398;9.814;2024-02-26T03:02:04;3.20;99.90
30534;DHT22;73248;52.398;9.814;2024-02-26T03:04:30;3.20;99.90
30534;DHT22;73248;52.398;9.814;2024-02-26T03:06:55;3.20;99.90
30534;DHT22;73248;52.398;9.814;2024-02-26T03:09:21;3.20;99.90
30534;DHT22;73248;52.398;9.814;2024-02-26T03:11:47;3.20;99.90
30534;DHT22;73248;52.398;9.814;2024-02-26T03:14:12;3.20;99.90
30534;DHT22;73248;52.398;9.814;2024-02-26T03:16:38;3.20;99.90
30534;DHT22;73248;52.398;9.814;2024-02-26T03:19:03;3.30;99.90
30534;DHT22;73248;52.398;9.814;2024-02-26T03:21:29;3.30;99.90
30534;DHT22;73248;52.398;9.814;2024-02-26T03:23:55;3.20;99.90
30534;DHT22;73248;52.398;9.814;2024-02-26T03:26:20;3.30;99.90
30534;DHT22;73248;52.398;9.814;2024-02-26T03:28:46;3.30;99.90
30534;DHT22;73248;52.398;9.814;2024-02-26T03:31:12;3.30;99.90
30534;DHT22;73248;52.398;9.814;2024-02-26T03:33:38;3.30;99.90
30534;DHT22;73248;52.398;9.814;2024-02-26T03:36:04;3.30;99.90
30534;DHT22;73248;52.398;9.814;2024-02-26T03:38:30;3.20;99.90
30534;DHT22;73248;52.398;9.814;2024-02-26T03:40:56;3.20;99.90
30534;DHT22;73248;52.398;9.814;2024-02-26T03:43:21;3.40;99.90
30534;DHT22;73248;52.398;9.814;2024-02-26T03:45:47;3.20;99.90
30534;DHT22;73248;52.398;9.814;2024-02-26T03:48:12;3.20;99.90
30534;DHT22;73248;52.398;9.814;2024-02-26T03:50:38;3.20;99.90
30534;DHT22;73248;52.398;9.814;2024-02-26T03:53:04;3.20;99.90
30534;DHT22;73248;52.398;9.814;2024-02-26T03:55:30;3.20;99.90
30534;DHT22;73248;52.398;9.814;2024-02-26T03:57:55;3.20;99.90
30534;DHT22;73248;52.398;9.814;2024-02-26T04:00:21;3.20;99.90
30534;DHT22;73248;52.398;9.814;2024-02-26T04:02:47;3.20;99.90
30534;DHT22;73248;52.398;9.814;2024-02-26T04:05:13;3.20;99.90
30534;DHT22;73248;52.398;9.814;2024-02-26T04:07:42;3.20;99.90
30534;DHT22;73248;52.398;9.814;2024-02-26T04:10:11;3.20;99.90
30534;DHT22;73248;52.398;9.814;2024-02-26T04:12:40;3.20;99.90
30534;DHT22;73248;52.398;9.814;2024-02-26T04:15:10;3.20;99.90
30534;DHT22;73248;52.398;9.814;2024-02-26T04:17:36;3.20;99.90
30534;DHT22;73248;52.398;9.814;2024-02-26T04:20:04;3.30;99.90
30534;DHT22;73248;52.398;9.814;2024-02-26T04:22:30;3.30;99.90
30534;DHT22;73248;52.398;9.814;2024-02-26T04:24:56;3.30;99.90
30534;DHT22;73248;52.398;9.814;2024-02-26T04:27:22;3.40;99.90
30534;DHT22;73248;52.398;9.814;2024-02-26T04:29:47;3.40;99.90
30534;DHT22;73248;52.398;9.814;2024-02-26T04:32:13;3.40;99.90
30534;DHT22;73248;52.398;9.814;2024-02-26T04:34:38;3.40;99.90
30534;DHT22;73248;52.398;9.814;2024-02-26T04:37:04;3.40;99.90
30534;DHT22;73248;52.398;9.814;2024-02-26T04:39:29;3.50;99.90
30534;DHT22;73248;52.398;9.814;2024-02-26T04:41:55;3.50;99.90
30534;DHT22;73248;52.398;9.814;2024-02-26T04:44:20;3.50;99.90
30534;DHT22;73248;52.398;9.814;2024-02-26T04:46:46;3.60;99.90
30534;DHT22;73248;52.398;9.814;2024-02-26T04:49:12;3.60;99.90
30534;DHT22;73248;52.398;9.814;2024-02-26T04:51:37;3.60;99.90
30534;DHT22;73248;52.398;9.814;2024-02-26T04:54:03;3.70;99.90
30534;DHT22;73248;52.398;9.814;2024-02-26T04:56:28;3.70;99.90
30534;DHT22;73248;52.398;9.814;2024-02-26T04:58:54;3.70;99.90
30534;DHT22;73248;52.398;9.814;2024-02-26T05:01:20;3.80;99.90
30534;DHT22;73248;52.398;9.814;2024-02-26T05:03:45;3.80;99.90
30534;DHT22;73248;52.398;9.814;2024-02-26T05:06:11;3.80;99.90
30534;DHT22;73248;52.398;9.814;2024-02-26T05:08:36;3.80;99.90
30534;DHT22;73248;52.398;9.814;2024-02-26T05:11:04;3.80;99.90
30534;DHT22;73248;52.398;9.814;2024-02-26T05:13:30;3.90;99.90
30534;DHT22;73248;52.398;9.814;2024-02-26T05:15:55;3.90;99.90
30534;DHT22;73248;52.398;9.814;2024-02-26T05:18:22;3.90;99.90
30534;DHT22;73248;52.398;9.814;2024-02-26T05:20:47;3.90;99.90
30534;DHT22;73248;52.398;9.814;2024-02-26T05:23:13;4.00;99.90
30534;DHT22;73248;52.398;9.814;2024-02-26T05:25:39;4.00;99.90
30534;DHT22;73248;52.398;9.814;2024-02-26T05:28:04;3.90;99.90
30534;DHT22;73248;52.398;9.814;2024-02-26T05:30:30;3.90;99.90
30534;DHT22;73248;52.398;9.814;2024-02-26T05:32:56;4.00;99.90
30534;DHT22;73248;52.398;9.814;2024-02-26T05:35:22;4.00;99.90
30534;DHT22;73248;52.398;9.814;2024-02-26T05:37:47;4.00;99.90
30534;DHT22;73248;52.398;9.814;2024-02-26T05:40:13;4.00;99.90
30534;DHT22;73248;52.398;9.814;2024-02-26T05:42:39;4.00;99.90
30534;DHT22;73248;52.398;9.814;2024-02-26T05:45:05;4.10;99.90
30534;DHT22;73248;52.398;9.814;2024-02-26T05:47:34;4.10;99.90
30534;DHT22;73248;52.398;9.814;2024-02-26T05:50:00;4.10;99.90
30534;DHT22;73248;52.398;9.814;2024-02-26T05:52:27;4.10;99.90
30534;DHT22;73248;52.398;9.814;2024-02-26T05:54:53;4.10;99.90
30534;DHT22;73248;52.398;9.814;2024-02-26T05:57:19;4.10;99.90
30534;DHT22;73248;52.398;9.814;2024-02-26T05:59:45;4.20;99.90
30534;DHT22;73248;52.398;9.814;2024-02-26T06:02:10;4.20;99.90
30534;DHT22;73248;52.398;9.814;2024-02-26T06:04:36;4.20;99.90
30534;DHT22;73248;52.398;9.814;2024-02-26T06:07:02;4.20;99.90
30534;DHT22;73248;52.398;9.814;2024-02-26T06:09:27;4.30;99.90
30534;DHT22;73248;52.398;9.814;2024-02-26T06:11:53;4.30;99.90
30534;DHT22;73248;52.398;9.814;2024-02-26T06:14:19;4.30;99.90
30534;DHT22;73248;52.398;9.814;2024-02-26T06:16:46;4.30;99.90
30534;DHT22;73248;52.398;9.814;2024-02-26T06:19:11;4.30;99.90
30534;DHT22;73248;52.398;9.814;2024-02-26T06:21:37;4.40;99.90
30534;DHT22;73248;52.398;9.814;2024-02-26T06:24:02;4.40;99.90
30534;DHT22;73248;52.398;9.814;2024-02-26T06:26:28;4.40;99.90
30534;DHT22;73248;52.398;9.814;2024-02-26T06:28:55;4.40;99.90
30534;DHT22;73248;52.398;9.814;2024-02-26T06:31:21;4.40;99.90
30534;DHT22;73248;52.398;9.814;2024-02-26T06:33:48;4.50;99.90
30534;DHT22;73248;52.398;9.814;2024-02-26T06:36:15;4.50;99.90
30534;DHT22;73248;52.398;9.814;2024-02-26T06:38:41;4.50;99.90
30534;DHT22;73248;52.398;9.814;2024-02-26T06:41:06;4.50;99.90
30534;DHT22;73248;52.398;9.814;2024-02-26T06:43:32;4.50;99.90
30534;DHT22;73248;52.398;9.814;2024-02-26T06:45:58;4.60;99.90
30534;DHT22;73248;52.398;9.814;2024-02-26T06:48:24;4.60;99.90
30534;DHT22;73248;52.398;9.814;2024-02-26T06:50:50;4.60;99.90
30534;DHT22;73248;52.398;9.814;2024-02-26T06:53:16;4.60;99.90
30534;DHT22;73248;52.398;9.814;2024-02-26T06:55:42;4.70;99.90
30534;DHT22;73248;52.398;9.814;2024-02-26T06:58:08;4.70;99.90
30534;DHT22;73248;52.398;9.814;2024-02-26T07:00:34;4.70;99.90
30534;DHT22;73248;52.398;9.814;2024-02-26T07:03:00;4.70;99.90
30534;DHT22;73248;52.398;9.814;2024-02-26T07:05:27;4.80;99.90
30534;DHT22;73248;52.398;9.814;2024-02-26T07:07:52;4.80;99.90
30534;DHT22;73248;52.398;9.814;2024-02-26T07:10:18;4.80;99.90
30534;DHT22;73248;52.398;9.814;2024-02-26T07:12:44;4.80;99.90
30534;DHT22;73248;52.398;9.814;2024-02-26T07:15:10;4.90;99.90
30534;DHT22;73248;52.398;9.814;2024-02-26T07:17:36;4.90;99.90
30534;DHT22;73248;52.398;9.814;2024-02-26T07:20:02;4.90;99.90
30534;DHT22;73248;52.398;9.814;2024-02-26T07:22:30;4.90;99.90
30534;DHT22;73248;52.398;9.814;2024-02-26T07:24:55;5.00;99.90
30534;DHT22;73248;52.398;9.814;2024-02-26T07:27:21;5.00;99.90
30534;DHT22;73248;52.398;9.814;2024-02-26T07:29:47;5.00;99.90
30534;DHT22;73248;52.398;9.814;2024-02-26T07:32:12;5.10;99.90
30534;DHT22;73248;52.398;9.814;2024-02-26T07:34:38;5.10;99.90
30534;DHT22;73248;52.398;9.814;2024-02-26T07:37:07;5.10;99.90
30534;DHT22;73248;52.398;9.814;2024-02-26T07:39:33;5.10;99.90
30534;DHT22;73248;52.398;9.814;2024-02-26T07:41:59;5.10;99.90
30534;DHT22;73248;52.398;9.814;2024-02-26T07:44:24;5.20;99.90
30534;DHT22;73248;52.398;9.814;2024-02-26T07:46:50;5.20;99.90
30534;DHT22;73248;52.398;9.814;2024-02-26T07:49:16;5.20;99.90
30534;DHT22;73248;52.398;9.814;2024-02-26T07:51:41;5.30;99.90
30534;DHT22;73248;52.398;9.814;2024-02-26T07:54:07;5.30;99.90
30534;DHT22;73248;52.398;9.814;2024-02-26T07:56:33;5.40;99.90
30534;DHT22;73248;52.398;9.814;2024-02-26T07:58:58;5.40;99.90
30534;DHT22;73248;52.398;9.814;2024-02-26T08:01:24;5.40;99.90
30534;DHT22;73248;52.398;9.814;2024-02-26T08:03:51;5.50;99.90
30534;DHT22;73248;52.398;9.814;2024-02-26T08:06:17;5.60;99.90
30534;DHT22;73248;52.398;9.814;2024-02-26T08:08:42;5.60;99.90
30534;DHT22;73248;52.398;9.814;2024-02-26T08:11:09;5.60;99.90
30534;DHT22;73248;52.398;9.814;2024-02-26T08:13:34;5.60;99.90
30534;DHT22;73248;52.398;9.814;2024-02-26T08:16:01;5.70;99.90
30534;DHT22;73248;52.398;9.814;2024-02-26T08:18:27;5.70;99.90
30534;DHT22;73248;52.398;9.814;2024-02-26T08:20:52;5.70;99.90
30534;DHT22;73248;52.398;9.814;2024-02-26T08:23:18;5.80;99.90
30534;DHT22;73248;52.398;9.814;2024-02-26T08:25:43;5.80;99.90
30534;DHT22;73248;52.398;9.814;2024-02-26T08:28:09;5.80;99.90
30534;DHT22;73248;52.398;9.814;2024-02-26T08:30:38;5.90;99.90
30534;DHT22;73248;52.398;9.814;2024-02-26T08:33:04;6.00;99.90
30534;DHT22;73248;52.398;9.814;2024-02-26T08:35:29;6.00;99.90
30534;DHT22;73248;52.398;9.814;2024-02-26T08:37:55;6.10;99.90
30534;DHT22;73248;52.398;9.814;2024-02-26T08:40:21;6.10;99.90
30534;DHT22;73248;52.398;9.814;2024-02-26T08:42:46;6.10;99.90
30534;DHT22;73248;52.398;9.814;2024-02-26T08:45:12;6.20;99.90
30534;DHT22;73248;52.398;9.814;2024-02-26T08:47:38;6.20;99.90
30534;DHT22;73248;52.398;9.814;2024-02-26T08:50:05;6.30;99.90
30534;DHT22;73248;52.398;9.814;2024-02-26T08:52:31;6.30;99.90
30534;DHT22;73248;52.398;9.814;2024-02-26T08:54:56;6.40;99.90
30534;DHT22;73248;52.398;9.814;2024-02-26T08:57:23;6.40;99.90
30534;DHT22;73248;52.398;9.814;2024-02-26T08:59:49;6.50;99.90
30534;DHT22;73248;52.398;9.814;2024-02-26T09:02:14;6.50;99.90
30534;DHT22;73248;52.398;9.814;2024-02-26T09:04:40;6.60;99.90
30534;DHT22;73248;52.398;9.814;2024-02-26T09:07:05;6.60;99.90
30534;DHT22;73248;52.398;9.814;2024-02-26T09:09:31;6.70;99.90
30534;DHT22;73248;52.398;9.814;2024-02-26T09:11:57;6.70;99.90
30534;DHT22;73248;52.398;9.814;2024-02-26T09:14:22;6.70;99.90
30534;DHT22;73248;52.398;9.814;2024-02-26T09:16:48;6.80;99.90
30534;DHT22;73248;52.398;9.814;2024-02-26T09:19:14;6.80;99.90
30534;DHT22;73248;52.398;9.814;2024-02-26T09:21:44;6.90;99.90
30534;DHT22;73248;52.398;9.814;2024-02-26T09:24:11;6.90;99.90
30534;DHT22;73248;52.398;9.814;2024-02-26T09:26:37;6.90;99.90
30534;DHT22;73248;52.398;9.814;2024-02-26T09:29:02;7.00;99.90
30534;DHT22;73248;52.398;9.814;2024-02-26T09:31:29;7.00;99.90
30534;DHT22;73248;52.398;9.814;2024-02-26T09:33:55;7.10;99.90
30534;DHT22;73248;52.398;9.814;2024-02-26T09:36:20;6.90;99.90
30534;DHT22;73248;52.398;9.814;2024-02-26T09:38:47;7.20;99.90
30534;DHT22;73248;52.398;9.814;2024-02-26T09:41:15;7.20;99.90
30534;DHT22;73248;52.398;9.814;2024-02-26T09:43:44;7.20;99.90
30534;DHT22;73248;52.398;9.814;2024-02-26T09:46:11;7.30;99.90
30534;DHT22;73248;52.398;9.814;2024-02-26T09:48:37;7.30;99.90
30534;DHT22;73248;52.398;9.814;2024-02-26T09:51:03;7.30;99.90
30534;DHT22;73248;52.398;9.814;2024-02-26T09:53:30;7.30;99.90
30534;DHT22;73248;52.398;9.814;2024-02-26T09:55:58;7.40;99.90
30534;DHT22;73248;52.398;9.814;2024-02-26T09:58:24;7.40;99.90
30534;DHT22;73248;52.398;9.814;2024-02-26T10:00:56;7.50;99.90
30534;DHT22;73248;52.398;9.814;2024-02-26T10:03:26;7.50;99.90
30534;DHT22;73248;52.398;9.814;2024-02-26T10:05:53;7.60;99.90
30534;DHT22;73248;52.398;9.814;2024-02-26T10:08:21;7.50;99.90
30534;DHT22;73248;52.398;9.814;2024-02-26T10:10:47;7.70;99.90
30534;DHT22;73248;52.398;9.814;2024-02-26T10:13:14;7.70;99.90
30534;DHT22;73248;52.398;9.814;2024-02-26T10:15:39;7.70;99.90
30534;DHT22;73248;52.398;9.814;2024-02-26T10:18:06;7.70;99.90
30534;DHT22;73248;52.398;9.814;2024-02-26T10:20:32;7.80;99.90
30534;DHT22;73248;52.398;9.814;2024-02-26T10:22:58;7.80;99.90
30534;DHT22;73248;52.398;9.814;2024-02-26T10:25:23;7.90;99.90
30534;DHT22;73248;52.398;9.814;2024-02-26T10:27:49;7.90;99.90
30534;DHT22;73248;52.398;9.814;2024-02-26T10:30:19;7.90;99.90
30534;DHT22;73248;52.398;9.814;2024-02-26T10:32:45;7.90;99.90
30534;DHT22;73248;52.398;9.814;2024-02-26T10:35:15;8.00;99.90
30534;DHT22;73248;52.398;9.814;2024-02-26T10:37:42;8.00;99.90
30534;DHT22;73248;52.398;9.814;2024-02-26T10:40:11;8.00;99.90
30534;DHT22;73248;52.398;9.814;2024-02-26T10:42:37;8.10;99.90
30534;DHT22;73248;52.398;9.814;2024-02-26T10:45:05;8.10;99.90
30534;DHT22;73248;52.398;9.814;2024-02-26T10:47:31;8.20;99.90
30534;DHT22;73248;52.398;9.814;2024-02-26T10:49:59;8.20;99.90
30534;DHT22;73248;52.398;9.814;2024-02-26T10:52:25;8.20;99.90
30534;DHT22;73248;52.398;9.814;2024-02-26T10:54:54;8.20;99.90
30534;DHT22;73248;52.398;9.814;2024-02-26T10:57:21;8.30;99.90
30534;DHT22;73248;52.398;9.814;2024-02-26T10:59:48;8.30;99.90
30534;DHT22;73248;52.398;9.814;2024-02-26T11:02:14;8.30;99.90
30534;DHT22;73248;52.398;9.814;2024-02-26T11:04:41;8.30;99.90
30534;DHT22;73248;52.398;9.814;2024-02-26T11:07:08;8.40;99.90
30534;DHT22;73248;52.398;9.814;2024-02-26T11:09:34;8.40;99.90
30534;DHT22;73248;52.398;9.814;2024-02-26T11:12:02;8.40;99.90
30534;DHT22;73248;52.398;9.814;2024-02-26T11:14:29;8.50;99.90
30534;DHT22;73248;52.398;9.814;2024-02-26T11:16:57;8.50;99.90
30534;DHT22;73248;52.398;9.814;2024-02-26T11:19:24;8.60;99.90
30534;DHT22;73248;52.398;9.814;2024-02-26T11:21:50;8.60;99.90
30534;DHT22;73248;52.398;9.814;2024-02-26T11:24:16;8.60;99.90
30534;DHT22;73248;52.398;9.814;2024-02-26T11:26:46;8.60;99.90
30534;DHT22;73248;52.398;9.814;2024-02-26T11:29:17;8.70;99.90
30534;DHT22;73248;52.398;9.814;2024-02-26T11:31:44;8.80;99.90
30534;DHT22;73248;52.398;9.814;2024-02-26T11:34:10;8.90;99.90
30534;DHT22;73248;52.398;9.814;2024-02-26T11:36:37;8.90;99.90
30534;DHT22;73248;52.398;9.814;2024-02-26T11:39:04;8.90;99.90
30534;DHT22;73248;52.398;9.814;2024-02-26T11:41:30;8.90;99.90
30534;DHT22;73248;52.398;9.814;2024-02-26T11:44:02;9.00;99.90
30534;DHT22;73248;52.398;9.814;2024-02-26T11:46:31;9.10;99.90
30534;DHT22;73248;52.398;9.814;2024-02-26T11:49:01;9.10;99.90
30534;DHT22;73248;52.398;9.814;2024-02-26T11:51:32;9.20;99.90
30534;DHT22;73248;52.398;9.814;2024-02-26T11:53:58;9.30;99.90
30534;DHT22;73248;52.398;9.814;2024-02-26T11:56:25;9.30;99.90
30534;DHT22;73248;52.398;9.814;2024-02-26T11:59:08;9.30;99.90
30534;DHT22;73248;52.398;9.814;2024-02-26T12:04:26;9.50;99.90
30534;DHT22;73248;52.398;9.814;2024-02-26T12:06:59;9.40;99.90
30534;DHT22;73248;52.398;9.814;2024-02-26T12:09:39;9.50;99.90
30534;DHT22;73248;52.398;9.814;2024-02-26T12:12:08;9.70;99.90
30534;DHT22;73248;52.398;9.814;2024-02-26T12:14:38;9.70;99.90
30534;DHT22;73248;52.398;9.814;2024-02-26T12:17:04;9.70;99.90
30534;DHT22;73248;52.398;9.814;2024-02-26T12:19:34;9.90;99.90
30534;DHT22;73248;52.398;9.814;2024-02-26T12:22:00;9.90;99.90
30534;DHT22;73248;52.398;9.814;2024-02-26T12:24:25;9.90;99.90
30534;DHT22;73248;52.398;9.814;2024-02-26T12:26:51;9.90;99.90
30534;DHT22;73248;52.398;9.814;2024-02-26T12:29:16;10.00;99.90
30534;DHT22;73248;52.398;9.814;2024-02-26T12:31:42;10.10;99.90
30534;DHT22;73248;52.398;9.814;2024-02-26T12:34:09;10.30;99.90
30534;DHT22;73248;52.398;9.814;2024-02-26T12:36:35;10.30;99.90
30534;DHT22;73248;52.398;9.814;2024-02-26T12:39:02;10.40;99.90
30534;DHT22;73248;52.398;9.814;2024-02-26T12:41:31;10.50;99.90
30534;DHT22;73248;52.398;9.814;2024-02-26T12:43:57;10.60;99.90
30534;DHT22;73248;52.398;9.814;2024-02-26T12:46:24;10.70;99.70
30534;DHT22;73248;52.398;9.814;2024-02-26T12:48:49;10.70;99.60
30534;DHT22;73248;52.398;9.814;2024-02-26T12:51:16;10.70;99.30
30534;DHT22;73248;52.398;9.814;2024-02-26T12:53:43;10.80;98.80
30534;DHT22;73248;52.398;9.814;2024-02-26T12:56:10;10.90;98.60
30534;DHT22;73248;52.398;9.814;2024-02-26T12:58:39;10.90;98.70
30534;DHT22;73248;52.398;9.814;2024-02-26T13:01:06;10.90;98.30
30534;DHT22;73248;52.398;9.814;2024-02-26T13:03:34;11.00;98.50
30534;DHT22;73248;52.398;9.814;2024-02-26T13:06:01;11.10;98.60
30534;DHT22;73248;52.398;9.814;2024-02-26T13:08:27;11.20;98.40
30534;DHT22;73248;52.398;9.814;2024-02-26T13:10:53;11.20;98.10
30534;DHT22;73248;52.398;9.814;2024-02-26T13:13:18;11.20;97.90
30534;DHT22;73248;52.398;9.814;2024-02-26T13:15:45;11.10;98.30
30534;DHT22;73248;52.398;9.814;2024-02-26T13:18:14;11.10;98.00
30534;DHT22;73248;52.398;9.814;2024-02-26T13:20:41;11.10;98.20
30534;DHT22;73248;52.398;9.814;2024-02-26T13:23:08;11.20;98.50
30534;DHT22;73248;52.398;9.814;2024-02-26T13:25:34;11.20;98.30
30534;DHT22;73248;52.398;9.814;2024-02-26T13:28:18;11.10;98.10
30534;DHT22;73248;52.398;9.814;2024-02-26T13:30:52;11.10;97.90
30534;DHT22;73248;52.398;9.814;2024-02-26T13:33:19;11.10;97.50
30534;DHT22;73248;52.398;9.814;2024-02-26T13:35:44;10.90;97.60
30534;DHT22;73248;52.398;9.814;2024-02-26T13:38:10;10.80;97.70
30534;DHT22;73248;52.398;9.814;2024-02-26T13:40:37;10.80;97.90
30534;DHT22;73248;52.398;9.814;2024-02-26T13:43:04;10.70;97.70
30534;DHT22;73248;52.398;9.814;2024-02-26T13:45:30;10.60;97.80
30534;DHT22;73248;52.398;9.814;2024-02-26T13:48:02;10.60;97.90
30534;DHT22;73248;52.398;9.814;2024-02-26T13:50:28;10.50;98.00
30534;DHT22;73248;52.398;9.814;2024-02-26T13:52:54;10.50;98.30
30534;DHT22;73248;52.398;9.814;2024-02-26T13:55:21;10.50;98.20
30534;DHT22;73248;52.398;9.814;2024-02-26T13:57:48;10.50;98.30
30534;DHT22;73248;52.398;9.814;2024-02-26T14:00:17;10.50;98.30
30534;DHT22;73248;52.398;9.814;2024-02-26T14:02:43;10.40;98.40
30534;DHT22;73248;52.398;9.814;2024-02-26T14:05:08;10.40;98.40
30534;DHT22;73248;52.398;9.814;2024-02-26T14:07:34;10.40;98.50
30534;DHT22;73248;52.398;9.814;2024-02-26T14:10:00;10.40;98.40
30534;DHT22;73248;52.398;9.814;2024-02-26T14:12:25;10.40;98.70
30534;DHT22;73248;52.398;9.814;2024-02-26T14:14:51;10.30;98.50
30534;DHT22;73248;52.398;9.814;2024-02-26T14:17:19;10.30;98.50
30534;DHT22;73248;52.398;9.814;2024-02-26T14:19:44;10.20;98.50
30534;DHT22;73248;52.398;9.814;2024-02-26T14:22:13;10.30;98.50
30534;DHT22;73248;52.398;9.814;2024-02-26T14:24:39;10.30;98.60
30534;DHT22;73248;52.398;9.814;2024-02-26T14:27:07;10.20;98.60
30534;DHT22;73248;52.398;9.814;2024-02-26T14:29:33;10.20;98.70
30534;DHT22;73248;52.398;9.814;2024-02-26T14:31:59;10.10;98.70
30534;DHT22;73248;52.398;9.814;2024-02-26T14:34:24;10.20;98.70
30534;DHT22;73248;52.398;9.814;2024-02-26T14:36:50;10.20;98.80
30534;DHT22;73248;52.398;9.814;2024-02-26T14:39:15;10.20;98.90
30534;DHT22;73248;52.398;9.814;2024-02-26T14:41:41;10.20;98.90
30534;DHT22;73248;52.398;9.814;2024-02-26T14:44:06;10.10;99.00
30534;DHT22;73248;52.398;9.814;2024-02-26T14:46:32;10.10;98.90
30534;DHT22;73248;52.398;9.814;2024-02-26T14:48:58;10.10;98.90
30534;DHT22;73248;52.398;9.814;2024-02-26T14:51:23;10.10;99.00
30534;DHT22;73248;52.398;9.814;2024-02-26T14:53:49;10.10;98.80
30534;DHT22;73248;52.398;9.814;2024-02-26T14:56:15;10.00;98.90
30534;DHT22;73248;52.398;9.814;2024-02-26T14:58:40;10.00;98.90
30534;DHT22;73248;52.398;9.814;2024-02-26T15:01:06;10.10;99.00
30534;DHT22;73248;52.398;9.814;2024-02-26T15:03:32;10.00;98.80
30534;DHT22;73248;52.398;9.814;2024-02-26T15:05:58;10.00;98.90
30534;DHT22;73248;52.398;9.814;2024-02-26T15:08:24;9.90;99.50
30534;DHT22;73248;52.398;9.814;2024-02-26T15:10:49;9.90;99.40
30534;DHT22;73248;52.398;9.814;2024-02-26T15:13:15;9.90;99.50
30534;DHT22;73248;52.398;9.814;2024-02-26T15:15:41;9.90;99.60
30534;DHT22;73248;52.398;9.814;2024-02-26T15:18:07;9.90;99.60
30534;DHT22;73248;52.398;9.814;2024-02-26T15:20:33;9.90;99.60
30534;DHT22;73248;52.398;9.814;2024-02-26T15:22:59;10.00;99.10
30534;DHT22;73248;52.398;9.814;2024-02-26T15:25:25;10.00;99.00
30534;DHT22;73248;52.398;9.814;2024-02-26T15:27:50;10.00;99.10
30534;DHT22;73248;52.398;9.814;2024-02-26T15:30:16;10.00;99.00
30534;DHT22;73248;52.398;9.814;2024-02-26T15:32:41;10.00;99.00
30534;DHT22;73248;52.398;9.814;2024-02-26T15:35:09;10.00;99.10
30534;DHT22;73248;52.398;9.814;2024-02-26T15:37:35;9.90;99.60
30534;DHT22;73248;52.398;9.814;2024-02-26T15:40:01;9.90;99.60